Time;durP1;ratioP1;P1;durP2;ratioP2;P2;SDS_P1;SDS_P2;PMS_P1;PMS_P2;Temp;Humidity;BMP_temperature;BMP_pressure;BME280_temperature;BME280_humidity;BME280_pressure;Samples;Min_cycle;Max_cycle;Signal;HPM_P1;HPM_P2
2023/03/03 00:00:40;;;;;;;38.67;18.85;;;;;;;1.70;100.00;102552.66;2615530;36;20049;-52
2023/03/03 00:03:11;;;;;;;38.72;19.60;;;;;;;1.68;100.00;102553.59;2614570;36;20042;-49
2023/03/03 00:05:41;;;;;;;34.70;17.75;;;;;;;1.52;100.00;102553.13;2614537;36;20045;-50
2023/03/03 00:08:10;;;;;;;39.90;19.42;;;;;;;1.40;100.00;102559.56;2614647;36;20037;-50
2023/03/03 00:10:39;;;;;;;;;;;;;;;1.27;100.00;102566.06;2615404;36;20451;-49
2023/03/03 00:13:16;;;;;;;47.05;21.23;;;;;;;1.17;100.00;102568.03;2614295;36;19951;-49
2023/03/03 00:15:45;;;;;;;40.67;19.08;;;;;;;1.24;100.00;102564.34;2614084;36;20049;-51
2023/03/03 00:18:27;;;;;;;43.65;19.02;;;;;;;1.22;100.00;102561.72;2613090;36;20045;-50
2023/03/03 00:20:59;;;;;;;45.80;20.30;;;;;;;1.25;100.00;102558.09;2614720;36;20494;-49
2023/03/03 00:23:36;;;;;;;48.08;21.67;;;;;;;1.11;100.00;102565.53;2615549;31;20431;-49
2023/03/03 00:26:18;;;;;;;49.95;21.25;;;;;;;0.99;100.00;102566.66;2614356;36;20035;-50
2023/03/03 00:28:51;;;;;;;47.08;18.85;;;;;;;0.98;100.00;102568.41;2614427;36;20042;-50
2023/03/03 00:31:22;;;;;;;48.05;19.15;;;;;;;1.13;100.00;102572.50;2615229;36;20451;-49
2023/03/03 00:33:53;;;;;;;45.85;20.77;;;;;;;1.11;100.00;102569.03;2613401;36;20041;-50
2023/03/03 00:36:40;;;;;;;48.03;19.67;;;;;;;1.20;100.00;102567.97;2615461;36;20121;-50
2023/03/03 00:39:26;;;;;;;46.53;20.80;;;;;;;1.24;100.00;102569.66;2615061;36;20038;-49
2023/03/03 00:41:56;;;;;;;45.75;21.00;;;;;;;1.09;100.00;102570.84;2614467;36;20045;-50
2023/03/03 00:44:42;;;;;;;49.47;20.88;;;;;;;1.11;100.00;102569.03;2614601;36;20042;-51
2023/03/03 00:47:26;;;;;;;54.17;22.20;;;;;;;1.02;100.00;102567.44;2615354;36;20038;-49
2023/03/03 00:49:56;;;;;;;50.67;21.40;;;;;;;1.13;100.00;102579.59;2614915;36;20081;-49
2023/03/03 00:52:29;;;;;;;47.20;19.70;;;;;;;1.02;100.00;102590.44;2614769;36;20435;-51
2023/03/03 00:54:58;;;;;;;43.90;18.75;;;;;;;1.03;100.00;102582.47;2615557;31;20121;-50
2023/03/03 00:57:26;;;;;;;49.85;19.45;;;;;;;1.02;100.00;102580.72;2615533;36;20082;-49
2023/03/03 00:59:57;;;;;;;47.27;19.17;;;;;;;1.07;100.00;102579.75;2615506;36;20042;-49
2023/03/03 01:02:25;;;;;;;51.00;18.90;;;;;;;1.13;100.00;102592.88;2614442;31;20046;-50
2023/03/03 01:04:55;;;;;;;48.97;19.98;;;;;;;1.19;100.00;102590.97;2614961;36;20035;-50
2023/03/03 01:07:25;;;;;;;46.78;19.83;;;;;;;1.38;100.00;102588.78;2614570;31;20057;-49
2023/03/03 01:09:53;;;;;;;53.75;20.88;;;;;;;1.32;100.00;102588.03;2614607;36;20034;-50
2023/03/03 01:12:21;;;;;;;48.85;20.00;;;;;;;1.25;100.00;102586.44;2614980;36;20030;-50
2023/03/03 01:14:51;;;;;;;46.92;21.02;;;;;;;1.24;100.00;102590.88;2615305;36;20034;-49
2023/03/03 01:17:22;;;;;;;49.15;19.63;;;;;;;1.33;100.00;102587.16;2615014;31;20130;-49
2023/03/03 01:19:51;;;;;;;51.72;19.45;;;;;;;1.55;100.00;102575.13;2615112;36;20034;-49
2023/03/03 01:22:19;;;;;;;54.42;20.60;;;;;;;1.50;100.00;102570.84;2614578;36;20038;-53
2023/03/03 01:24:47;;;;;;;54.63;20.90;;;;;;;1.55;100.00;102580.44;2615090;36;20034;-50
2023/03/03 01:27:16;;;;;;;47.55;18.17;;;;;;;1.53;100.00;102573.41;2615014;36;20086;-50
2023/03/03 01:29:44;;;;;;;49.30;20.88;;;;;;;1.45;100.00;102572.72;2615484;36;20034;-51
2023/03/03 01:32:12;;;;;;;53.63;20.88;;;;;;;1.49;100.00;102566.44;2615824;36;20038;-48
2023/03/03 01:34:43;;;;;;;55.78;20.25;;;;;;;1.47;100.00;102566.47;2615663;36;20030;-49
2023/03/03 01:37:11;;;;;;;48.60;18.92;;;;;;;1.45;100.00;102562.97;2614228;31;20427;-49
2023/03/03 01:39:40;;;;;;;49.58;19.52;;;;;;;1.31;100.00;102565.06;2615256;36;20038;-50
2023/03/03 01:42:08;;;;;;;49.67;19.70;;;;;;;1.37;100.00;102571.13;2615459;36;20049;-50
2023/03/03 01:44:37;;;;;;;52.58;19.23;;;;;;;1.52;100.00;102559.28;2616478;36;20388;-50
2023/03/03 01:47:09;;;;;;;52.05;20.52;;;;;;;1.55;100.00;102569.81;2615716;36;20034;-50
2023/03/03 01:49:46;;;;;;;51.30;20.13;;;;;;;1.45;100.00;102578.91;2615679;36;20038;-50
2023/03/03 01:52:21;;;;;;;55.22;19.75;;;;;;;1.57;100.00;102572.44;2615122;36;20038;-50
2023/03/03 01:54:55;;;;;;;55.25;19.35;;;;;;;1.62;100.00;102570.56;2613926;36;20038;-48
2023/03/03 01:57:28;;;;;;;54.55;20.40;;;;;;;1.58;100.00;102576.84;2615884;36;20034;-50
2023/03/03 01:59:59;;;;;;;45.90;18.83;;;;;;;1.49;100.00;102566.44;2616139;36;20045;-50
2023/03/03 02:02:29;;;;;;;46.97;20.80;;;;;;;1.50;100.00;102561.09;2615782;36;20038;-49
2023/03/03 02:05:00;;;;;;;54.90;20.92;;;;;;;1.42;100.00;102570.16;2615584;36;20038;-50
2023/03/03 02:07:31;;;;;;;50.38;19.30;;;;;;;1.48;100.00;102568.22;2614627;36;20045;-52
2023/03/03 02:10:03;;;;;;;49.30;19.42;;;;;;;1.63;100.00;102561.66;2614664;36;20065;-48
2023/03/03 02:12:35;;;;;;;46.63;18.20;;;;;;;1.59;100.00;102570.63;2616036;36;20042;-51
2023/03/03 02:15:10;;;;;;;49.75;18.40;;;;;;;1.55;100.00;102567.16;2615881;31;20440;-50
2023/03/03 02:17:38;;;;;;;55.78;18.98;;;;;;;1.50;100.00;102570.84;2615327;36;20038;-50
2023/03/03 02:20:17;;;;;;;50.75;19.77;;;;;;;1.44;100.00;102570.97;2615121;36;20029;-49
2023/03/03 02:22:52;;;;;;;49.13;18.13;;;;;;;1.65;100.00;102562.53;2616126;36;20045;-50
2023/03/03 02:25:30;;;;;;;49.42;19.83;;;;;;;1.56;100.00;102562.72;2615922;36;20066;-51
2023/03/03 02:28:02;;;;;;;42.42;18.75;;;;;;;1.53;100.00;102565.44;2615656;36;20030;-50
2023/03/03 02:30:30;;;;;;;47.33;18.67;;;;;;;1.38;100.00;102564.91;2616022;36;20038;-49
2023/03/03 02:32:58;;;;;;;48.33;19.23;;;;;;;1.55;100.00;102558.34;2615576;36;20042;-50
2023/03/03 02:35:34;;;;;;;46.63;18.27;;;;;;;1.49;100.00;102569.09;2615569;36;20042;-53
2023/03/03 02:38:11;;;;;;;43.67;18.70;;;;;;;1.64;100.00;102563.44;2616229;36;20026;-50
2023/03/03 02:40:45;;;;;;;44.60;17.75;;;;;;;1.47;100.00;102570.91;2615297;31;20042;-50
2023/03/03 02:43:26;;;;;;;48.88;18.10;;;;;;;1.73;100.00;102559.69;2615378;36;20041;-49
2023/03/03 02:45:54;;;;;;;48.55;18.48;;;;;;;1.57;100.00;102564.47;2615842;36;20038;-50
2023/03/03 02:48:22;;;;;;;47.85;17.58;;;;;;;1.66;100.00;102561.59;2615144;36;20045;-49
2023/03/03 02:50:51;;;;;;;49.58;18.08;;;;;;;1.60;100.00;102561.75;2615939;36;20030;-49
2023/03/03 02:53:19;;;;;;;45.65;18.05;;;;;;;1.59;100.00;102560.03;2615720;36;20041;-51
2023/03/03 02:55:47;;;;;;;46.83;16.90;;;;;;;1.62;100.00;102557.28;2615816;36;20041;-49
2023/03/03 02:58:18;;;;;;;44.53;16.63;;;;;;;1.64;100.00;102568.72;2615739;36;20038;-49
2023/03/03 03:00:47;;;;;;;42.17;16.80;;;;;;;1.79;100.00;102564.84;2616071;36;20046;-51
2023/03/03 03:03:16;;;;;;;41.17;15.27;;;;;;;1.53;100.00;102569.00;2615034;36;20122;-50
2023/03/03 03:05:44;;;;;;;37.87;14.37;;;;;;;1.65;100.00;102565.19;2615597;36;20041;-51
2023/03/03 03:08:12;;;;;;;33.72;12.75;;;;;;;1.65;100.00;102565.19;2615623;36;21638;-51
2023/03/03 03:10:41;;;;;;;35.25;14.00;;;;;;;1.59;100.00;102560.03;2614899;36;20038;-50
2023/03/03 03:13:09;;;;;;;33.20;13.60;;;;;;;1.79;100.00;102563.97;2615217;36;20034;-49
2023/03/03 03:15:40;;;;;;;38.50;15.07;;;;;;;1.71;100.00;102557.06;2615692;36;20045;-50
2023/03/03 03:18:08;;;;;;;35.10;14.27;;;;;;;1.65;100.00;102564.28;2614817;31;20041;-49
2023/03/03 03:20:38;;;;;;;31.42;13.25;;;;;;;1.71;100.00;102558.84;2615914;36;20034;-49
2023/03/03 03:23:07;;;;;;;36.58;14.38;;;;;;;1.85;100.00;102558.50;2614894;36;20030;-49
2023/03/03 03:25:41;;;;;;;30.58;14.13;;;;;;;1.91;100.00;102553.03;2615945;31;20056;-53
2023/03/03 03:28:09;;;;;;;31.50;13.15;;;;;;;1.73;100.00;102557.03;2616246;31;20065;-50
2023/03/03 03:30:43;;;;;;;32.85;12.85;;;;;;;1.82;100.00;102559.44;2616296;36;20386;-52
2023/03/03 03:33:11;;;;;;;30.70;11.18;;;;;;;1.77;100.00;102558.69;2615830;31;20632;-49
2023/03/03 03:35:44;;;;;;;31.58;12.35;;;;;;;1.62;100.00;102561.72;2615317;36;20034;-50
2023/03/03 03:38:12;;;;;;;32.22;12.68;;;;;;;1.66;100.00;102569.56;2615550;36;20026;-50
2023/03/03 03:40:41;;;;;;;34.67;14.17;;;;;;;1.53;100.00;102573.41;2615833;36;21060;-49
2023/03/03 03:43:09;;;;;;;31.67;12.55;;;;;;;1.54;100.00;102572.50;2615419;36;20418;-49
2023/03/03 03:45:41;;;;;;;32.83;13.03;;;;;;;1.63;100.00;102572.28;2615559;36;20034;-49
2023/03/03 03:48:09;;;;;;;34.38;13.25;;;;;;;1.67;100.00;102573.97;2614995;32;20584;-51
2023/03/03 03:50:37;;;;;;;33.03;12.75;;;;;;;1.68;100.00;102566.88;2615113;36;20074;-49
2023/03/03 03:53:06;;;;;;;31.38;13.63;;;;;;;1.67;100.00;102570.44;2615289;36;20042;-49
2023/03/03 03:55:35;;;;;;;31.75;13.50;;;;;;;1.71;100.00;102573.00;2613939;36;20023;-50
2023/03/03 03:58:03;;;;;;;35.30;14.00;;;;;;;1.73;100.00;102568.50;2615417;36;20045;-50
2023/03/03 04:00:31;;;;;;;33.97;11.80;;;;;;;1.75;100.00;102569.34;2615636;36;20036;-49
2023/03/03 04:03:02;;;;;;;40.50;13.70;;;;;;;1.69;100.00;102572.16;2614693;31;20065;-50
2023/03/03 04:05:31;;;;;;;38.90;12.80;;;;;;;1.58;100.00;102575.06;2615428;36;20088;-49
2023/03/03 04:07:59;;;;;;;33.00;13.90;;;;;;;1.72;100.00;102571.19;2615728;36;20035;-49
2023/03/03 04:10:27;;;;;;;35.35;13.27;;;;;;;1.77;100.00;102579.03;2614940;36;20038;-49
2023/03/03 04:12:56;;;;;;;37.33;12.82;;;;;;;1.80;100.00;102581.66;2615383;36;20057;-49
2023/03/03 04:15:24;;;;;;;39.63;14.73;;;;;;;1.94;100.00;102590.13;2615200;36;20031;-51
2023/03/03 04:17:52;;;;;;;40.15;13.90;;;;;;;1.89;100.00;102582.28;2614764;36;20042;-50
2023/03/03 04:20:23;;;;;;;34.90;12.57;;;;;;;1.95;100.00;102586.56;2615304;31;20037;-50
2023/03/03 04:22:52;;;;;;;34.47;13.88;;;;;;;1.96;100.00;102584.78;2615513;36;20046;-50
2023/03/03 04:25:20;;;;;;;42.80;15.77;;;;;;;2.03;100.00;102579.31;2615608;36;20034;-51
2023/03/03 04:27:48;;;;;;;36.10;14.18;;;;;;;2.05;100.00;102590.75;2615297;36;20071;-50
2023/03/03 04:30:18;;;;;;;41.15;15.30;;;;;;;1.97;100.00;102582.09;2615259;31;20065;-51
2023/03/03 04:32:46;;;;;;;35.20;14.15;;;;;;;2.00;100.00;102579.34;2615450;36;20540;-50
2023/03/03 04:35:14;;;;;;;41.95;13.70;;;;;;;2.15;100.00;102590.50;2615479;36;20055;-50
2023/03/03 04:37:45;;;;;;;37.05;13.85;;;;;;;2.17;100.00;102591.38;2615096;36;20041;-47
2023/03/03 04:40:15;;;;;;;37.67;12.35;;;;;;;1.98;100.00;102583.84;2615108;36;20584;-50
2023/03/03 04:42:43;;;;;;;40.97;15.10;;;;;;;1.99;100.00;102582.94;2615562;31;20037;-49
2023/03/03 04:45:12;;;;;;;38.65;13.98;;;;;;;2.12;100.00;102587.94;2615347;36;20552;-49
2023/03/03 04:47:41;;;;;;;;;;;;;;;2.05;100.00;102580.13;2615466;36;20435;-49
2023/03/03 04:50:11;;;;;;;34.72;12.95;;;;;;;2.14;100.00;102578.16;2615208;36;19947;-49
2023/03/03 04:52:40;;;;;;;35.85;12.23;;;;;;;1.99;100.00;102579.41;2615240;36;20039;-52
2023/03/03 04:55:12;;;;;;;38.40;11.20;;;;;;;2.13;100.00;102581.72;2615861;36;20038;-49
2023/03/03 04:57:41;;;;;;;38.00;11.90;;;;;;;2.00;100.00;102575.84;2615379;36;20043;-49
2023/03/03 05:00:11;;;;;;;37.35;11.55;;;;;;;2.09;100.00;102576.50;2614868;36;20043;-49
2023/03/03 05:02:40;;;;;;;42.95;12.82;;;;;;;2.09;100.00;102573.84;2614947;31;20039;-48
2023/03/03 05:05:10;;;;;;;42.22;12.85;;;;;;;2.12;100.00;102574.66;2616262;36;20487;-50
2023/03/03 05:07:38;;;;;;;38.85;12.18;;;;;;;2.22;100.00;102578.81;2616145;36;20085;-48
2023/03/03 05:10:08;;;;;;;30.08;11.15;;;;;;;2.22;100.00;102574.41;2616067;36;20389;-50
2023/03/03 05:12:38;;;;;;;33.60;11.63;;;;;;;2.28;100.00;102576.00;2616279;36;20558;-50
2023/03/03 05:15:08;;;;;;;31.95;12.20;;;;;;;2.45;100.00;102575.56;2615994;36;20045;-53
2023/03/03 05:17:37;;;;;;;36.05;12.93;;;;;;;2.37;100.00;102581.09;2615497;36;20069;-50
2023/03/03 05:20:07;;;;;;;34.25;12.13;;;;;;;2.31;100.00;102572.41;2616562;36;20486;-50
2023/03/03 05:22:35;;;;;;;39.35;12.63;;;;;;;2.35;100.00;102574.94;2615901;36;20059;-50
2023/03/03 05:25:04;;;;;;;38.17;12.87;;;;;;;2.48;100.00;102580.78;2616347;36;20038;-49
2023/03/03 05:27:32;;;;;;;40.33;13.98;;;;;;;2.43;100.00;102575.59;2615766;36;20046;-53
2023/03/03 05:30:03;;;;;;;35.53;13.45;;;;;;;2.54;100.00;102571.78;2615945;31;20046;-51
2023/03/03 05:32:31;;;;;;;36.72;13.55;;;;;;;2.48;100.00;102571.97;2615598;31;20046;-53
2023/03/03 05:35:00;;;;;;;36.42;11.73;;;;;;;2.56;100.00;102583.22;2617286;36;20475;-51
2023/03/03 05:37:28;;;;;;;48.17;13.50;;;;;;;2.38;100.00;102572.19;2615782;36;20045;-52
2023/03/03 05:39:56;;;;;;;34.88;11.15;;;;;;;2.42;100.00;102579.16;2616438;31;20034;-52
2023/03/03 05:42:24;;;;;;;42.70;13.20;;;;;;;2.50;100.00;102580.75;2616111;31;20041;-51
2023/03/03 05:44:53;;;;;;;40.13;11.57;;;;;;;2.51;100.00;102582.50;2616079;36;20540;-54
2023/03/03 05:47:24;;;;;;;36.50;12.67;;;;;;;2.55;100.00;102581.50;2615820;36;20027;-53
2023/03/03 05:49:52;;;;;;;42.45;11.75;;;;;;;2.45;100.00;102578.22;2615716;36;20295;-54
2023/03/03 05:52:21;;;;;;;35.13;12.43;;;;;;;2.56;100.00;102591.22;2615567;36;20041;-50
2023/03/03 05:54:49;;;;;;;40.20;11.80;;;;;;;2.50;100.00;102586.06;2615187;36;20034;-51
2023/03/03 05:57:17;;;;;;;38.83;12.10;;;;;;;2.60;100.00;102598.19;2615906;36;20041;-53
2023/03/03 05:59:46;;;;;;;44.85;12.90;;;;;;;2.47;100.00;102586.16;2615766;36;20038;-52
2023/03/03 06:02:14;;;;;;;30.80;11.75;;;;;;;2.64;100.00;102597.19;2615220;36;20061;-51
2023/03/03 06:04:45;;;;;;;35.00;13.20;;;;;;;2.67;100.00;102591.78;2615606;36;20027;-52
2023/03/03 06:07:13;;;;;;;44.58;12.75;;;;;;;2.60;100.00;102587.56;2616526;36;20443;-51
2023/03/03 06:09:42;;;;;;;27.80;11.43;;;;;;;2.63;100.00;102593.69;2615311;36;20042;-51
2023/03/03 06:12:10;;;;;;;31.33;10.83;;;;;;;2.55;100.00;102586.84;2616235;36;20034;-52
2023/03/03 06:14:39;;;;;;;34.55;10.88;;;;;;;2.59;100.00;102586.69;2615276;36;20287;-51
2023/03/03 06:17:07;;;;;;;31.40;11.13;;;;;;;2.60;100.00;102591.09;2616481;36;20057;-52
2023/03/03 06:19:35;;;;;;;34.03;10.70;;;;;;;2.71;100.00;102585.50;2615134;36;20153;-49
2023/03/03 06:22:06;;;;;;;42.20;12.27;;;;;;;2.74;100.00;102589.81;2616217;36;20298;-51
2023/03/03 06:24:35;;;;;;;36.30;13.18;;;;;;;2.66;100.00;102590.03;2615709;36;20038;-51
2023/03/03 06:27:03;;;;;;;37.40;11.48;;;;;;;2.67;100.00;102588.28;2616177;36;20046;-50
2023/03/03 06:29:31;;;;;;;38.57;13.23;;;;;;;2.66;100.00;102591.84;2615210;36;20039;-49
2023/03/03 06:32:00;;;;;;;34.97;12.35;;;;;;;2.70;100.00;102598.81;2614783;36;20602;-51
2023/03/03 06:34:28;;;;;;;34.75;12.93;;;;;;;2.71;100.00;102606.75;2615040;36;20130;-51
2023/03/03 06:36:57;;;;;;;32.13;12.00;;;;;;;2.84;100.00;102601.09;2616126;36;20548;-53
2023/03/03 06:39:28;;;;;;;30.67;12.25;;;;;;;2.77;100.00;102601.25;2615534;36;20038;-51
2023/03/03 06:41:56;;;;;;;38.97;11.80;;;;;;;2.83;100.00;102600.22;2615816;36;20030;-52
2023/03/03 06:44:24;;;;;;;31.02;10.95;;;;;;;2.94;100.00;102602.56;2615224;36;20026;-50
2023/03/03 06:46:56;;;;;;;32.78;12.48;;;;;;;2.94;100.00;102607.88;2615297;36;20041;-54
2023/03/03 06:49:24;;;;;;;39.33;12.43;;;;;;;2.99;100.00;102606.00;2614993;36;20038;-50
2023/03/03 06:51:52;;;;;;;35.23;11.57;;;;;;;2.97;100.00;102606.03;2616041;36;20038;-50
2023/03/03 06:54:22;;;;;;;32.38;11.63;;;;;;;3.07;100.00;102617.25;2615382;36;20050;-50
2023/03/03 06:56:59;;;;;;;27.00;11.23;;;;;;;3.10;100.00;102611.00;2616009;36;20034;-51
2023/03/03 06:59:29;;;;;;;29.50;11.32;;;;;;;2.93;100.00;102617.66;2615185;31;20041;-53
2023/03/03 07:01:58;;;;;;;28.95;10.70;;;;;;;3.01;100.00;102625.44;2615625;36;20041;-51
2023/03/03 07:04:30;;;;;;;30.55;10.65;;;;;;;2.94;100.00;102618.53;2614581;36;20038;-52
2023/03/03 07:07:00;;;;;;;31.40;10.57;;;;;;;2.98;100.00;102623.72;2615855;36;20854;-51
2023/03/03 07:09:31;;;;;;;30.77;11.40;;;;;;;2.92;100.00;102625.69;2613765;36;20992;-51
2023/03/03 07:12:12;;;;;;;29.98;10.80;;;;;;;2.94;100.00;102627.38;2616147;36;20045;-50
2023/03/03 07:14:43;;;;;;;33.92;11.75;;;;;;;3.03;100.00;102631.56;2615394;36;20551;-50
2023/03/03 07:17:18;;;;;;;35.50;11.70;;;;;;;3.00;100.00;102634.31;2615989;36;20042;-52
2023/03/03 07:19:47;;;;;;;29.55;10.60;;;;;;;2.91;100.00;102635.44;2615366;36;20110;-50
2023/03/03 07:22:18;;;;;;;30.08;9.98;;;;;;;3.05;100.00;102643.06;2616178;36;20065;-52
2023/03/03 07:24:48;;;;;;;31.60;11.38;;;;;;;3.28;100.00;102646.81;2614600;31;20030;-52
2023/03/03 07:27:27;;;;;;;32.38;11.00;;;;;;;3.16;100.00;102645.38;2615523;36;20496;-51
2023/03/03 07:30:00;;;;;;;31.33;11.73;;;;;;;3.14;100.00;102641.91;2615800;36;20039;-50
2023/03/03 07:32:41;;;;;;;32.33;11.70;;;;;;;3.25;100.00;102646.91;2615557;36;20039;-54
2023/03/03 07:35:27;;;;;;;23.30;10.60;;;;;;;3.31;100.00;102652.06;2615996;31;20419;-51
2023/03/03 07:37:55;;;;;;;34.38;10.85;;;;;;;3.41;100.00;102650.88;2615574;36;20031;-50
2023/03/03 07:40:36;;;;;;;40.10;11.90;;;;;;;3.23;100.00;102656.75;2615249;31;20034;-51
2023/03/03 07:43:27;;;;;;;28.42;10.98;;;;;;;3.29;100.00;102660.09;2616224;36;20023;-53
2023/03/03 07:46:00;;;;;;;28.13;10.95;;;;;;;3.24;100.00;102663.78;2615554;36;20041;-53
2023/03/03 07:48:33;;;;;;;29.23;9.20;;;;;;;3.41;100.00;102669.50;2615268;36;20045;-50
2023/03/03 07:51:06;;;;;;;33.67;11.27;;;;;;;3.67;100.00;102663.41;2616451;31;20451;-51
2023/03/03 07:53:37;;;;;;;30.13;9.60;;;;;;;3.68;100.00;102665.16;2615752;36;20045;-53
2023/03/03 07:56:16;;;;;;;29.65;11.85;;;;;;;3.70;100.00;102664.25;2616114;31;20487;-52
2023/03/03 07:58:47;;;;;;;26.23;9.55;;;;;;;3.62;100.00;102680.44;2614985;36;20030;-50
2023/03/03 08:01:33;;;;;;;24.30;10.30;;;;;;;3.71;100.00;102677.50;2616522;36;20475;-52
2023/03/03 08:04:06;;;;;;;29.38;9.50;;;;;;;3.50;100.00;102687.88;2615452;36;20053;-50
2023/03/03 08:06:49;;;;;;;24.15;10.45;;;;;;;3.51;100.00;102696.72;2615266;31;20038;-49
2023/03/03 08:09:39;;;;;;;28.45;8.38;;;;;;;3.59;100.00;102700.06;2614876;36;20035;-50
2023/03/03 08:12:25;;;;;;;25.00;9.70;;;;;;;3.48;100.00;102695.03;2615537;36;20038;-49
2023/03/03 08:14:58;;;;;;;22.63;9.07;;;;;;;3.76;100.00;102699.53;2615741;36;20141;-50
2023/03/03 08:17:36;;;;;;;23.48;9.10;;;;;;;3.57;100.00;102693.03;2615375;31;20049;-51
2023/03/03 08:20:32;;;;;;;24.90;10.20;;;;;;;3.66;100.00;102690.06;2615208;31;20038;-50
2023/03/03 08:23:01;;;;;;;26.02;9.18;;;;;;;3.83;100.00;102695.75;2615596;36;20065;-50
2023/03/03 08:25:29;;;;;;;26.98;10.38;;;;;;;3.63;100.00;102698.16;2615520;31;20458;-51
2023/03/03 08:27:57;;;;;;;27.25;10.90;;;;;;;3.65;100.00;102706.97;2615811;36;20038;-49
2023/03/03 08:30:29;;;;;;;29.45;11.13;;;;;;;3.84;100.00;102700.19;2615012;36;20030;-49
2023/03/03 08:32:58;;;;;;;24.90;10.05;;;;;;;3.91;100.00;102702.66;2615471;36;20030;-49
2023/03/03 08:35:26;;;;;;;27.30;10.70;;;;;;;3.74;100.00;102698.72;2616338;36;20042;-51
2023/03/03 08:37:55;;;;;;;29.98;10.82;;;;;;;4.04;100.00;102704.00;2615328;36;20042;-50
2023/03/03 08:40:24;;;;;;;29.70;10.65;;;;;;;4.25;100.00;102705.09;2614992;36;20045;-49
2023/03/03 08:42:53;;;;;;;28.20;10.70;;;;;;;4.21;100.00;102707.00;2615601;36;20115;-51
2023/03/03 08:45:21;;;;;;;24.10;9.07;;;;;;;4.40;100.00;102701.06;2615873;36;20035;-49
2023/03/03 08:47:52;;;;;;;19.95;8.85;;;;;;;4.27;100.00;102699.72;2615339;36;20031;-50
2023/03/03 08:50:21;;;;;;;20.77;8.82;;;;;;;4.28;100.00;102712.13;2613177;36;20427;-49
2023/03/03 08:52:50;;;;;;;16.63;8.23;;;;;;;4.37;100.00;102701.16;2614347;36;20034;-49
2023/03/03 08:55:18;;;;;;;15.70;7.40;;;;;;;4.37;100.00;102704.72;2614937;36;20034;-49
2023/03/03 08:57:47;;;;;;;13.17;6.53;;;;;;;4.41;100.00;102708.16;2616198;36;20315;-50
2023/03/03 09:00:18;;;;;;;16.87;7.27;;;;;;;4.06;100.00;102707.47;2615659;36;20279;-50
2023/03/03 09:02:47;;;;;;;14.25;6.90;;;;;;;4.16;100.00;102705.41;2615693;31;20436;-49
2023/03/03 09:05:18;;;;;;;12.90;6.32;;;;;;;4.02;100.00;102708.53;2615558;36;20042;-50
2023/03/03 09:07:50;;;;;;;12.32;6.45;;;;;;;4.01;100.00;102712.09;2616135;36;20536;-50
2023/03/03 09:10:21;;;;;;;20.05;7.68;;;;;;;4.15;100.00;102707.22;2614300;31;20030;-49
2023/03/03 09:12:50;;;;;;;13.50;6.47;;;;;;;4.33;100.00;102710.22;2615857;36;20062;-50
2023/03/03 09:15:23;;;;;;;13.35;6.45;;;;;;;4.32;100.00;102708.47;2615536;36;20460;-49
2023/03/03 09:17:53;;;;;;;18.05;6.63;;;;;;;4.49;100.00;102700.78;2614878;31;20076;-50
2023/03/03 09:20:29;;;;;;;;;;;;;;;4.72;100.00;102709.78;2615628;36;20049;-49
2023/03/03 09:22:58;;;;;;;15.18;5.97;;;;;;;4.75;100.00;102696.34;2615723;36;19953;-50
2023/03/03 09:25:34;;;;;;;12.25;5.80;;;;;;;4.76;100.00;102702.56;2614962;31;20033;-50
2023/03/03 09:28:03;;;;;;;11.65;6.05;;;;;;;4.62;100.00;102703.88;2615818;36;20027;-52
2023/03/03 09:30:38;;;;;;;10.55;5.55;;;;;;;4.56;100.00;102697.00;2610462;36;20039;-50
2023/03/03 09:33:25;;;;;;;12.65;6.47;;;;;;;4.72;100.00;102704.44;2614904;31;20514;-54
2023/03/03 09:36:16;;;;;;;13.80;6.30;;;;;;;4.74;100.00;102705.25;2615591;36;20105;-50
2023/03/03 09:38:47;;;;;;;12.10;5.13;;;;;;;4.97;100.00;102706.28;2615381;36;20034;-49
2023/03/03 09:41:42;;;;;;;13.65;6.05;;;;;;;4.94;100.00;102703.72;2615230;31;20523;-50
2023/03/03 09:44:33;;;;;;;12.13;6.15;;;;;;;5.05;100.00;102705.06;2613868;31;20606;-51
2023/03/03 09:47:20;;;;;;;10.82;5.15;;;;;;;4.99;100.00;102709.75;2615404;36;20034;-49
2023/03/03 09:49:59;;;;;;;12.95;5.97;;;;;;;5.23;100.00;102708.00;2615829;36;20039;-51
2023/03/03 09:52:40;;;;;;;11.63;5.38;;;;;;;5.34;100.00;102704.94;2615916;36;20551;-50
2023/03/03 09:55:26;;;;;;;11.50;5.43;;;;;;;5.42;100.00;102705.53;2615709;36;20615;-50
2023/03/03 09:58:11;;;;;;;11.85;5.97;;;;;;;5.16;100.00;102704.69;2616072;36;20034;-51
2023/03/03 10:00:51;;;;;;;10.38;5.18;;;;;;;5.31;100.00;102705.91;2616247;36;20039;-50
2023/03/03 10:03:45;;;;;;;10.82;5.15;;;;;;;5.23;100.00;102703.53;2615357;36;20527;-50
2023/03/03 10:06:22;;;;;;;9.82;4.80;;;;;;;5.13;100.00;102707.47;2615083;31;20058;-53
2023/03/03 10:09:22;;;;;;;14.13;6.25;;;;;;;5.38;100.00;102703.91;2613286;31;20908;-51
2023/03/03 10:11:58;;;;;;;14.70;6.10;;;;;;;5.74;100.00;102704.31;2614448;36;20038;-50
2023/03/03 10:14:48;;;;;;;10.85;5.78;;;;;;;5.33;100.00;102703.19;2615041;36;20042;-49
2023/03/03 10:17:27;;;;;;;10.88;4.53;;;;;;;5.18;100.00;102708.19;2615295;31;20030;-49
2023/03/03 10:20:08;;;;;;;12.18;5.00;;;;;;;5.38;100.00;102701.22;2615083;36;20154;-50
2023/03/03 10:22:45;;;;;;;10.20;4.47;;;;;;;5.48;100.00;102709.75;2615049;36;20515;-51
2023/03/03 10:25:27;;;;;;;9.93;5.03;;;;;;;5.58;100.00;102705.81;2615330;36;20034;-50
2023/03/03 10:28:19;;;;;;;8.75;4.60;;;;;;;5.67;100.00;102701.91;2615189;36;20034;-51
2023/03/03 10:30:56;;;;;;;10.15;5.30;;;;;;;5.67;100.00;102712.59;2615077;36;20034;-50
2023/03/03 10:33:31;;;;;;;9.20;4.65;;;;;;;5.74;100.00;102704.31;2615025;36;20045;-50
2023/03/03 10:36:11;;;;;;;9.93;4.75;;;;;;;5.93;100.00;102707.16;2615389;36;20550;-50
2023/03/03 10:38:48;;;;;;;9.77;4.85;;;;;;;6.17;100.00;102701.78;2614994;36;20035;-50
2023/03/03 10:41:40;;;;;;;8.50;4.13;;;;;;;6.10;100.00;102694.94;2614996;36;20046;-53
2023/03/03 10:44:26;;;;;;;12.27;4.45;;;;;;;6.09;100.00;102698.53;2615009;36;20559;-53
2023/03/03 10:47:20;;;;;;;9.77;3.92;;;;;;;6.34;100.00;102693.06;2615490;36;20150;-54
2023/03/03 10:49:58;;;;;;;8.20;3.83;;;;;;;6.40;100.00;102689.25;2616013;36;20234;-50
2023/03/03 10:52:39;;;;;;;8.10;4.32;;;;;;;6.46;100.00;102687.22;2615370;36;20145;-51
2023/03/03 10:55:22;;;;;;;10.27;4.13;;;;;;;6.66;100.00;102701.53;2615646;36;20034;-52
2023/03/03 10:58:06;;;;;;;8.60;4.22;;;;;;;6.92;100.00;102697.75;2614807;36;20166;-49
2023/03/03 11:00:43;;;;;;;9.13;4.05;;;;;;;6.82;100.00;102702.63;2615480;36;20057;-53
2023/03/03 11:03:35;;;;;;;7.82;4.20;;;;;;;6.51;100.00;102700.38;2614805;36;20153;-50
2023/03/03 11:06:10;;;;;;;12.32;6.70;;;;;;;6.59;100.00;102702.72;2615118;36;20516;-52
2023/03/03 11:08:45;;;;;;;10.07;5.20;;;;;;;6.54;100.00;102697.59;2614587;31;20631;-52
2023/03/03 11:11:19;;;;;;;8.52;4.93;;;;;;;6.43;100.00;102699.81;2615185;36;20034;-49
2023/03/03 11:13:58;;;;;;;8.32;4.93;;;;;;;6.50;100.00;102698.63;2614881;36;20050;-50
2023/03/03 11:16:43;;;;;;;8.87;4.63;;;;;;;6.61;100.00;102693.72;2614719;36;20035;-49
2023/03/03 11:19:29;;;;;;;10.43;4.65;;;;;;;6.55;100.00;102688.63;2614658;36;20073;-52
2023/03/03 11:22:09;;;;;;;6.88;4.35;;;;;;;6.77;100.00;102690.38;2615519;36;20565;-51
2023/03/03 11:24:49;;;;;;;8.32;4.05;;;;;;;6.77;100.00;102693.03;2614934;36;20038;-50
2023/03/03 11:27:32;;;;;;;6.95;3.92;;;;;;;6.75;100.00;102687.75;2615482;36;20038;-50
2023/03/03 11:30:20;;;;;;;8.73;3.25;;;;;;;7.35;100.00;102692.28;2615848;36;20046;-49
2023/03/03 11:32:55;;;;;;;7.43;2.75;;;;;;;7.33;100.00;102683.44;2614976;31;20038;-50
2023/03/03 11:35:30;;;;;;;9.02;3.08;;;;;;;7.44;100.00;102686.50;2615729;36;20288;-50
2023/03/03 11:38:09;;;;;;;8.25;2.90;;;;;;;7.76;100.00;102681.44;2615887;36;20038;-52